createdAt,value
2018-09-10T00:01:02.888Z,3.23
2018-09-10T00:03:32.210Z,2.90
2018-09-10T00:06:01.519Z,2.87
2018-09-10T00:08:30.783Z,4.57
2018-09-10T00:11:00.067Z,3.30
2018-09-10T00:13:29.301Z,3.50
2018-09-10T00:15:58.551Z,3.13
2018-09-10T00:18:27.819Z,5.33
2018-09-10T00:20:57.075Z,6.00
2018-09-10T00:23:26.355Z,2.93
2018-09-10T00:25:55.668Z,5.27
2018-09-10T00:28:24.967Z,5.00
2018-09-10T00:30:54.214Z,3.57
2018-09-10T00:33:23.434Z,4.97
2018-09-10T00:35:52.733Z,3.80
2018-09-10T00:38:22.028Z,3.97
2018-09-10T00:40:51.259Z,5.97
2018-09-10T00:43:20.565Z,3.13
2018-09-10T00:45:49.867Z,4.37
2018-09-10T00:48:19.157Z,3.10
2018-09-10T00:50:48.442Z,4.23
2018-09-10T00:53:17.739Z,4.90
2018-09-10T00:55:47.051Z,2.43
2018-09-10T00:58:16.332Z,3.90
2018-09-10T01:00:45.619Z,2.93
2018-09-10T01:03:14.821Z,4.43
2018-09-10T01:05:44.104Z,4.97
2018-09-10T01:08:13.513Z,3.27
2018-09-10T01:10:42.771Z,3.90
2018-09-10T01:13:12.110Z,3.37
2018-09-10T01:15:41.384Z,3.13
2018-09-10T01:18:10.694Z,3.93
2018-09-10T01:20:40.025Z,3.60
2018-09-10T01:23:09.317Z,5.57
2018-09-10T01:25:38.646Z,3.90
2018-09-10T01:28:07.901Z,2.50
2018-09-10T01:30:37.208Z,3.97
2018-09-10T01:33:10.684Z,2.87
2018-09-10T01:35:39.924Z,3.37
2018-09-10T01:38:09.270Z,3.60
2018-09-10T01:40:38.531Z,2.60
2018-09-10T01:43:07.818Z,4.60
2018-09-10T01:45:37.164Z,4.47
2018-09-10T01:48:06.487Z,3.60
2018-09-10T01:50:35.693Z,2.70
2018-09-10T01:53:05.115Z,3.60
2018-09-10T01:55:34.455Z,4.67
2018-09-10T01:58:03.718Z,2.90
2018-09-10T02:00:33.055Z,2.63
2018-09-10T02:03:02.300Z,2.97
2018-09-10T02:05:31.748Z,3.23
2018-09-10T02:08:01.027Z,2.60
2018-09-10T02:10:30.326Z,3.50
2018-09-10T02:12:59.599Z,3.80
2018-09-10T02:15:28.895Z,2.80
2018-09-10T02:17:58.167Z,4.47
2018-09-10T02:20:27.480Z,4.30
2018-09-10T02:22:56.719Z,3.63
2018-09-10T02:25:25.990Z,5.03
2018-09-10T02:27:55.344Z,4.27
2018-09-10T02:30:24.525Z,3.57
2018-09-10T02:32:53.821Z,2.93
2018-09-10T02:35:23.061Z,3.77
2018-09-10T02:37:52.286Z,2.60
2018-09-10T02:40:21.699Z,2.37
2018-09-10T02:42:51.164Z,5.17
2018-09-10T02:45:20.470Z,2.50
2018-09-10T02:47:49.752Z,4.93
2018-09-10T02:50:19.039Z,4.03
2018-09-10T02:52:48.378Z,4.63
2018-09-10T02:55:17.770Z,2.07
2018-09-10T02:57:47.046Z,2.00
2018-09-10T03:00:16.374Z,2.83
2018-09-10T03:02:55.819Z,2.53
2018-09-10T03:05:25.006Z,3.47
2018-09-10T03:07:54.213Z,3.40
2018-09-10T03:10:23.540Z,3.87
2018-09-10T03:12:54.357Z,2.63
2018-09-10T03:15:23.819Z,2.03
2018-09-10T03:17:53.517Z,1.77
2018-09-10T03:20:23.016Z,3.23
2018-09-10T03:22:52.242Z,1.70
2018-09-10T03:25:22.018Z,2.13
2018-09-10T03:27:51.343Z,2.17
2018-09-10T03:30:20.623Z,2.47
2018-09-10T03:32:50.999Z,2.33
2018-09-10T03:35:20.318Z,2.50
2018-09-10T03:37:49.535Z,1.63
2018-09-10T03:40:18.828Z,4.00
2018-09-10T03:42:48.526Z,2.03
2018-09-10T03:45:17.727Z,3.20
2018-09-10T03:47:46.979Z,3.43
2018-09-10T03:50:17.295Z,2.43
2018-09-10T03:52:46.651Z,2.77
2018-09-10T03:55:15.931Z,3.43
2018-09-10T03:57:45.187Z,3.23
2018-09-10T04:00:14.550Z,2.47
2018-09-10T04:02:43.771Z,1.60
2018-09-10T04:05:13.048Z,3.53
2018-09-10T04:07:42.647Z,3.67
2018-09-10T04:10:12.038Z,2.80
2018-09-10T04:12:41.327Z,3.20
2018-09-10T04:15:10.979Z,3.57
2018-09-10T04:17:40.299Z,4.40
2018-09-10T04:20:11.159Z,2.70
2018-09-10T04:22:41.704Z,2.83
2018-09-10T04:25:12.011Z,3.63
2018-09-10T04:27:41.227Z,3.13
2018-09-10T04:30:15.303Z,3.67
2018-09-10T04:32:44.532Z,3.17
2018-09-10T04:35:13.835Z,2.20
2018-09-10T04:37:43.446Z,2.40
2018-09-10T04:40:12.759Z,3.80
2018-09-10T04:42:41.966Z,2.90
2018-09-10T04:45:11.239Z,2.13
2018-09-10T04:47:40.483Z,2.87
2018-09-10T04:50:09.767Z,3.00
2018-09-10T04:52:39.117Z,2.73
2018-09-10T04:55:08.412Z,4.30
2018-09-10T04:57:37.815Z,3.37
2018-09-10T05:00:07.551Z,4.00
2018-09-10T05:02:36.787Z,6.07
2018-09-10T05:05:06.147Z,5.70
2018-09-10T05:07:35.521Z,4.67
2018-09-10T05:10:05.155Z,8.20
2018-09-10T05:12:34.376Z,5.73
2018-09-10T05:15:03.665Z,6.70
2018-09-10T05:17:33.004Z,5.30
2018-09-10T05:20:02.315Z,4.33
2018-09-10T05:22:31.651Z,6.07
2018-09-10T05:25:00.943Z,6.53
2018-09-10T05:27:30.357Z,7.00
2018-09-10T05:29:59.655Z,7.67
2018-09-10T05:32:28.951Z,5.83
2018-09-10T05:34:58.360Z,6.57
2018-09-10T05:37:27.632Z,4.10
2018-09-10T05:39:58.146Z,5.67
2018-09-10T05:42:27.519Z,4.30
2018-09-10T05:44:56.951Z,8.53
2018-09-10T05:47:26.465Z,6.10
2018-09-10T05:49:55.738Z,7.60
2018-09-10T05:52:24.997Z,5.47
2018-09-10T05:54:54.295Z,5.87
2018-09-10T05:57:24.599Z,8.07
2018-09-10T05:59:53.884Z,5.93
2018-09-10T06:02:23.197Z,5.37
2018-09-10T06:04:52.475Z,9.77
2018-09-10T06:07:21.811Z,5.83
2018-09-10T06:09:51.066Z,6.97
2018-09-10T06:12:20.523Z,7.67
2018-09-10T06:14:49.924Z,9.07
2018-09-10T06:17:19.513Z,8.60
2018-09-10T06:19:48.754Z,7.73
2018-09-10T06:22:18.138Z,6.50
2018-09-10T06:24:47.451Z,7.57
2018-09-10T06:27:16.733Z,7.13
2018-09-10T06:29:45.990Z,7.70
2018-09-10T06:32:15.312Z,10.00
2018-09-10T06:34:44.599Z,8.50
2018-09-10T06:37:14.003Z,10.13
2018-09-10T06:39:43.329Z,9.37
2018-09-10T06:42:12.767Z,8.07
2018-09-10T06:44:42.039Z,8.83
2018-09-10T06:47:11.279Z,10.63
2018-09-10T06:49:40.529Z,9.47
2018-09-10T06:52:09.811Z,9.57
2018-09-10T06:54:39.100Z,11.40
2018-09-10T06:57:08.384Z,8.80
2018-09-10T06:59:37.767Z,15.33
2018-09-10T07:02:07.070Z,18.90
2018-09-10T07:04:36.316Z,13.20
2018-09-10T07:07:05.701Z,12.10
2018-09-10T07:09:35.020Z,12.70
2018-09-10T07:12:04.295Z,11.57
2018-09-10T07:14:34.615Z,10.13
2018-09-10T07:17:03.940Z,12.23
2018-09-10T07:19:33.307Z,11.53
2018-09-10T07:22:02.595Z,9.20
2018-09-10T07:24:32.300Z,9.07
2018-09-10T07:27:01.567Z,10.50
2018-09-10T07:29:30.816Z,13.03
2018-09-10T07:32:00.065Z,11.70
2018-09-10T07:34:29.430Z,13.47
2018-09-10T07:36:58.634Z,12.83
2018-09-10T07:39:27.939Z,11.73
2018-09-10T07:41:57.151Z,11.63
2018-09-10T07:44:26.395Z,10.83
2018-09-10T07:46:55.651Z,14.27
2018-09-10T07:49:24.911Z,12.30
2018-09-10T07:51:54.171Z,12.23
2018-09-10T07:54:23.485Z,13.00
2018-09-10T07:56:52.744Z,13.47
2018-09-10T07:59:22.042Z,11.83
2018-09-10T08:01:51.287Z,12.47
2018-09-10T08:04:20.518Z,13.73
2018-09-10T08:06:49.806Z,14.27
2018-09-10T08:09:19.100Z,13.10
2018-09-10T08:11:48.319Z,13.70
2018-09-10T08:14:19.686Z,12.83
2018-09-10T08:16:49.024Z,12.17
2018-09-10T08:19:18.375Z,15.73
2018-09-10T08:21:47.643Z,11.90
2018-09-10T08:24:17.045Z,13.47
2018-09-10T08:26:46.233Z,12.77
2018-09-10T08:29:15.610Z,16.53
2018-09-10T08:31:44.854Z,17.40
2018-09-10T08:34:14.076Z,10.60
2018-09-10T08:36:43.387Z,13.63
2018-09-10T08:39:12.742Z,14.97
2018-09-10T08:41:42.055Z,17.37
2018-09-10T08:44:11.304Z,15.40
2018-09-10T08:46:40.599Z,16.40
2018-09-10T08:49:09.891Z,14.07
2018-09-10T08:51:39.150Z,15.10
2018-09-10T08:54:08.432Z,11.93
2018-09-10T08:56:37.695Z,13.90
2018-09-10T08:59:07.125Z,15.03
2018-09-10T09:01:36.661Z,13.30
2018-09-10T09:04:06.477Z,16.33
2018-09-10T09:06:36.401Z,12.83
2018-09-10T09:09:07.662Z,18.90
2018-09-10T09:11:36.962Z,13.93
2018-09-10T09:14:06.266Z,14.37
2018-09-10T09:16:35.516Z,12.80
2018-09-10T09:19:04.838Z,12.63
2018-09-10T09:21:34.167Z,14.83
2018-09-10T09:24:03.447Z,10.93
2018-09-10T09:26:32.687Z,14.30
2018-09-10T09:29:01.946Z,16.93
2018-09-10T09:31:31.217Z,12.27
2018-09-10T09:34:00.454Z,14.07
2018-09-10T09:36:35.051Z,13.50
2018-09-10T09:39:09.727Z,17.17
2018-09-10T09:42:45.912Z,14.77
2018-09-10T09:45:20.310Z,14.37
2018-09-10T09:47:49.520Z,15.90
2018-09-10T09:50:19.092Z,17.50
2018-09-10T09:52:48.407Z,15.83
2018-09-10T09:55:17.623Z,14.73
2018-09-10T09:57:46.907Z,12.83
2018-09-10T10:00:20.287Z,16.13
2018-09-10T10:02:54.916Z,11.20
2018-09-10T10:05:24.163Z,12.27
2018-09-10T10:07:53.411Z,12.23
2018-09-10T10:10:22.740Z,17.13
2018-09-10T10:12:52.281Z,14.70
2018-09-10T10:15:21.633Z,12.33
2018-09-10T10:17:50.875Z,12.80
2018-09-10T10:20:20.232Z,11.20
2018-09-10T10:22:49.479Z,10.87
2018-09-10T10:25:18.794Z,13.20
2018-09-10T10:27:48.422Z,11.27
2018-09-10T10:30:17.668Z,13.63
2018-09-10T10:32:46.932Z,10.83
2018-09-10T10:35:16.143Z,13.70
2018-09-10T10:37:45.438Z,10.30
2018-09-10T10:40:14.796Z,11.80
2018-09-10T10:42:44.071Z,9.03
2018-09-10T10:45:14.509Z,17.13
2018-09-10T10:47:43.846Z,11.13
2018-09-10T10:50:13.123Z,13.20
2018-09-10T10:52:42.738Z,14.67
2018-09-10T10:55:12.103Z,9.47
2018-09-10T10:57:41.715Z,14.43
2018-09-10T11:00:11.032Z,14.63
2018-09-10T11:02:40.335Z,10.97
2018-09-10T11:05:09.635Z,13.33
2018-09-10T11:07:38.920Z,9.47
2018-09-10T11:10:08.869Z,10.67
2018-09-10T11:12:38.547Z,8.43
2018-09-10T11:15:07.851Z,12.50
2018-09-10T11:17:37.099Z,8.57
2018-09-10T11:20:07.014Z,10.20
2018-09-10T11:22:36.745Z,10.93
2018-09-10T11:25:05.988Z,9.70
2018-09-10T11:27:35.208Z,11.33
2018-09-10T11:30:04.978Z,9.90
2018-09-10T11:32:34.268Z,11.20
2018-09-10T11:35:03.716Z,10.13
2018-09-10T11:37:33.474Z,8.53
2018-09-10T11:40:02.718Z,8.93
2018-09-10T11:42:31.994Z,6.90
2018-09-10T11:45:01.270Z,7.83
2018-09-10T11:47:30.485Z,8.63
2018-09-10T11:49:59.719Z,6.57
2018-09-10T11:52:29.395Z,4.63
2018-09-10T11:54:58.659Z,6.20
2018-09-10T11:57:27.899Z,8.83
2018-09-10T11:59:57.398Z,6.60
2018-09-10T12:02:26.660Z,7.33
2018-09-10T12:04:55.985Z,4.33
2018-09-10T12:07:25.300Z,5.20
2018-09-10T12:09:54.588Z,10.53
2018-09-10T12:12:23.805Z,5.27
2018-09-10T12:14:53.087Z,6.17
2018-09-10T12:17:22.328Z,5.20
2018-09-10T12:19:51.576Z,3.57
2018-09-10T12:22:21.396Z,4.17
2018-09-10T12:25:00.387Z,6.20
2018-09-10T12:27:29.692Z,9.10
2018-09-10T12:29:58.997Z,8.40
2018-09-10T12:32:28.287Z,7.90
2018-09-10T12:34:57.508Z,5.20
2018-09-10T12:37:26.737Z,5.83
2018-09-10T12:39:55.925Z,5.00
2018-09-10T12:42:25.111Z,5.23
2018-09-10T12:44:54.323Z,5.50
2018-09-10T12:47:23.540Z,7.20
2018-09-10T12:49:52.900Z,8.67
2018-09-10T12:52:22.108Z,6.50
2018-09-10T12:54:51.340Z,6.37
2018-09-10T12:57:20.614Z,9.17
2018-09-10T12:59:49.926Z,6.47
2018-09-10T13:02:19.140Z,6.43
2018-09-10T13:04:48.388Z,4.67
2018-09-10T13:07:30.019Z,7.03
2018-09-10T13:09:59.381Z,5.63
2018-09-10T13:12:28.610Z,7.33
2018-09-10T13:14:57.892Z,9.27
2018-09-10T13:17:27.175Z,8.50
2018-09-10T13:19:56.360Z,8.13
2018-09-10T13:22:25.718Z,9.00
2018-09-10T13:24:54.981Z,7.17
2018-09-10T13:27:24.223Z,9.00
2018-09-10T13:29:53.450Z,7.30
2018-09-10T13:32:22.819Z,4.00
2018-09-10T13:34:52.141Z,6.17
2018-09-10T13:37:21.365Z,5.17
2018-09-10T13:39:50.671Z,6.30
2018-09-10T13:42:19.893Z,5.23
2018-09-10T13:44:49.115Z,3.93
2018-09-10T13:47:18.325Z,5.37
2018-09-10T13:49:47.520Z,6.23
2018-09-10T13:52:17.270Z,5.10
2018-09-10T13:54:46.750Z,4.60
2018-09-10T13:57:15.969Z,6.63
2018-09-10T13:59:45.294Z,5.63
2018-09-10T14:04:53.702Z,4.90
2018-09-10T14:07:22.851Z,3.93
2018-09-10T14:09:52.059Z,4.43
2018-09-10T14:12:21.289Z,7.87
2018-09-10T14:14:50.760Z,6.20
2018-09-10T14:17:20.035Z,4.07
2018-09-10T14:19:49.241Z,3.97
2018-09-10T14:22:18.415Z,4.70
2018-09-10T14:24:47.643Z,6.43
2018-09-10T14:27:16.939Z,3.03
2018-09-10T14:29:46.089Z,4.00
2018-09-10T14:32:15.401Z,2.97
2018-09-10T14:34:44.683Z,4.77
2018-09-10T14:37:13.849Z,4.87
2018-09-10T14:39:43.175Z,6.97
2018-09-10T14:42:12.375Z,3.80
2018-09-10T14:44:41.613Z,4.13
2018-09-10T14:47:10.842Z,3.43
2018-09-10T14:49:40.380Z,4.97
2018-09-10T14:52:09.808Z,3.03
2018-09-10T14:54:39.335Z,3.67
2018-09-10T14:57:08.587Z,3.10
2018-09-10T14:59:38.465Z,2.73
2018-09-10T15:02:07.685Z,4.53
2018-09-10T15:04:36.881Z,5.90
2018-09-10T15:07:06.289Z,5.63
2018-09-10T15:09:35.767Z,4.33
2018-09-10T15:12:05.102Z,3.70
2018-09-10T15:14:35.516Z,4.60
2018-09-10T15:17:04.837Z,5.03
2018-09-10T15:19:34.053Z,2.97
2018-09-10T15:22:03.315Z,5.00
2018-09-10T15:24:32.655Z,8.30
2018-09-10T15:27:01.976Z,3.73
2018-09-10T15:29:31.175Z,6.00
2018-09-10T15:32:00.746Z,6.93
2018-09-10T15:34:29.974Z,4.77
2018-09-10T15:36:59.199Z,2.73
2018-09-10T15:39:28.520Z,5.67
2018-09-10T15:41:57.833Z,4.33
2018-09-10T15:44:27.083Z,4.03
2018-09-10T15:46:56.264Z,4.27
2018-09-10T15:49:26.127Z,3.23
2018-09-10T15:51:55.911Z,4.00
2018-09-10T15:54:25.215Z,5.33
2018-09-10T15:56:54.419Z,4.40
2018-09-10T15:59:23.628Z,4.57
2018-09-10T16:01:52.795Z,6.30
2018-09-10T16:04:22.071Z,3.03
2018-09-10T16:06:52.402Z,3.97
2018-09-10T16:09:21.579Z,4.33
2018-09-10T16:11:50.767Z,4.37
2018-09-10T16:14:19.980Z,4.77
2018-09-10T16:16:49.343Z,4.87
2018-09-10T16:19:18.655Z,3.00
2018-09-10T16:21:48.128Z,3.07
2018-09-10T16:24:17.375Z,2.90
2018-09-10T16:26:46.654Z,5.90
2018-09-10T16:29:15.904Z,4.70
2018-09-10T16:31:45.067Z,4.87
2018-09-10T16:34:14.336Z,2.90
2018-09-10T16:36:43.490Z,5.30
2018-09-10T16:39:13.092Z,2.57
2018-09-10T16:41:42.268Z,2.47
2018-09-10T16:44:11.697Z,2.40
2018-09-10T16:46:42.089Z,4.10
2018-09-10T16:49:11.385Z,4.63
2018-09-10T16:51:41.796Z,4.63
2018-09-10T16:54:11.234Z,3.33
2018-09-10T16:56:41.708Z,5.20
2018-09-10T16:59:10.927Z,4.77
2018-09-10T17:01:40.150Z,3.73
2018-09-10T17:04:09.367Z,6.60
2018-09-10T17:06:38.590Z,5.00
2018-09-10T17:09:08.459Z,5.90
2018-09-10T17:11:38.100Z,4.17
2018-09-10T17:14:07.499Z,6.90
2018-09-10T17:16:36.705Z,5.00
2018-09-10T17:19:06.049Z,5.53
2018-09-10T17:21:35.352Z,5.03
2018-09-10T17:24:04.723Z,3.50
2018-09-10T17:26:33.979Z,5.07
2018-09-10T17:29:03.142Z,27.97
2018-09-10T17:31:32.487Z,4.60
2018-09-10T17:34:01.873Z,5.50
2018-09-10T17:36:31.498Z,5.90
2018-09-10T17:39:00.924Z,4.20
2018-09-10T17:41:30.186Z,5.90
2018-09-10T17:43:59.443Z,4.33
2018-09-10T17:46:28.808Z,3.50
2018-09-10T17:48:58.472Z,4.37
2018-09-10T17:51:27.659Z,3.10
2018-09-10T17:53:57.026Z,3.83
2018-09-10T17:56:26.211Z,4.27
2018-09-10T17:58:55.887Z,7.30
2018-09-10T18:01:25.169Z,3.17
2018-09-10T18:03:54.612Z,3.63
2018-09-10T18:06:23.876Z,5.60
2018-09-10T18:08:53.183Z,4.20
2018-09-10T18:11:22.472Z,4.97
2018-09-10T18:13:51.772Z,4.23
2018-09-10T18:16:21.040Z,3.80
2018-09-10T18:18:51.208Z,3.40
2018-09-10T18:21:20.560Z,6.33
2018-09-10T18:23:50.427Z,7.77
2018-09-10T18:26:20.064Z,4.27
2018-09-10T18:28:49.825Z,4.77
2018-09-10T18:31:19.458Z,4.10
2018-09-10T18:33:49.288Z,2.93
2018-09-10T18:36:19.833Z,7.47
2018-09-10T18:38:50.008Z,5.30
2018-09-10T18:41:19.968Z,5.17
2018-09-10T18:43:49.706Z,4.90
2018-09-10T18:46:19.145Z,7.50
2018-09-10T18:48:48.421Z,8.17
2018-09-10T18:51:18.309Z,4.20
2018-09-10T18:53:47.671Z,4.10
2018-09-10T18:56:16.852Z,6.17
2018-09-10T18:58:46.122Z,4.47
2018-09-10T19:01:15.449Z,6.03
2018-09-10T19:03:44.524Z,3.23
2018-09-10T19:06:13.775Z,6.83
2018-09-10T19:08:43.107Z,6.87
2018-09-10T19:11:12.348Z,4.27
2018-09-10T19:13:41.543Z,7.67
2018-09-10T19:16:10.791Z,3.07
2018-09-10T19:18:41.242Z,7.57
2018-09-10T19:21:10.645Z,8.80
2018-09-10T19:23:40.153Z,4.23
2018-09-10T19:26:09.306Z,5.00
2018-09-10T19:28:38.515Z,6.87
2018-09-10T19:31:07.999Z,4.97
2018-09-10T19:33:37.224Z,6.40
2018-09-10T19:36:06.802Z,5.23
2018-09-10T19:38:36.195Z,7.77
2018-09-10T19:41:05.500Z,5.60
2018-09-10T19:43:34.750Z,4.83
2018-09-10T19:46:04.188Z,5.67
2018-09-10T19:48:33.437Z,5.17
2018-09-10T19:51:02.753Z,5.03
2018-09-10T19:53:31.979Z,5.37
2018-09-10T19:56:01.175Z,5.30
2018-09-10T19:58:30.476Z,6.83
2018-09-10T20:00:59.683Z,5.67
2018-09-10T20:03:29.136Z,3.87
2018-09-10T20:05:58.347Z,7.70
2018-09-10T20:08:28.835Z,7.37
2018-09-10T20:10:58.083Z,9.43
2018-09-10T20:13:27.460Z,8.53
2018-09-10T20:15:56.640Z,6.03
2018-09-10T20:18:27.184Z,5.40
2018-09-10T20:20:56.401Z,7.23
2018-09-10T20:23:25.627Z,6.77
2018-09-10T20:25:54.808Z,6.00
2018-09-10T20:28:24.407Z,39.20
2018-09-10T20:30:53.756Z,6.27
2018-09-10T20:33:23.095Z,6.60
2018-09-10T20:35:52.415Z,5.10
2018-09-10T20:38:21.611Z,6.13
2018-09-10T20:40:50.875Z,5.97
2018-09-10T20:43:20.074Z,8.63
2018-09-10T20:45:49.754Z,7.60
2018-09-10T20:48:18.856Z,6.47
2018-09-10T20:50:48.092Z,6.27
2018-09-10T20:53:17.352Z,6.87
2018-09-10T20:55:46.596Z,6.17
2018-09-10T20:58:15.896Z,4.77
2018-09-10T21:00:45.262Z,5.87
2018-09-10T21:03:15.332Z,7.97
2018-09-10T21:05:44.712Z,5.17
2018-09-10T21:08:13.920Z,3.93
2018-09-10T21:10:44.246Z,8.17
2018-09-10T21:13:13.523Z,6.07
2018-09-10T21:15:42.751Z,7.30
2018-09-10T21:18:12.036Z,7.23
2018-09-10T21:20:45.699Z,6.23
2018-09-10T21:23:14.956Z,5.23
2018-09-10T21:25:44.224Z,7.47
2018-09-10T21:28:13.464Z,6.00
2018-09-10T21:30:42.708Z,5.83
2018-09-10T21:33:11.995Z,6.60
2018-09-10T21:35:41.137Z,6.13
2018-09-10T21:38:11.451Z,3.63
2018-09-10T21:40:40.745Z,6.60
2018-09-10T21:43:10.130Z,5.20
2018-09-10T21:45:39.519Z,5.53
2018-09-10T21:48:08.724Z,7.93
2018-09-10T21:50:38.070Z,7.33
2018-09-10T21:53:07.502Z,7.17
2018-09-10T21:55:36.721Z,5.43
2018-09-10T21:58:08.375Z,5.57
2018-09-10T22:00:41.263Z,5.50
2018-09-10T22:03:10.669Z,4.47
2018-09-10T22:05:40.081Z,6.37
2018-09-10T22:08:09.835Z,5.87
2018-09-10T22:10:39.157Z,5.37
2018-09-10T22:13:08.419Z,6.07
2018-09-10T22:15:37.698Z,8.63
2018-09-10T22:18:07.143Z,5.40
2018-09-10T22:20:36.348Z,7.23
2018-09-10T22:23:05.632Z,6.23
2018-09-10T22:25:34.830Z,5.73
2018-09-10T22:28:04.114Z,5.07
2018-09-10T22:30:33.440Z,5.30
2018-09-10T22:33:02.690Z,7.33
2018-09-10T22:35:31.944Z,8.63
2018-09-10T22:38:01.133Z,6.27
2018-09-10T22:40:30.394Z,4.53
2018-09-10T22:42:59.632Z,5.73
2018-09-10T22:45:29.964Z,5.63
2018-09-10T22:47:59.241Z,5.73
2018-09-10T22:50:29.596Z,6.30
2018-09-10T22:52:58.844Z,8.00
2018-09-10T22:55:28.217Z,7.27
2018-09-10T22:57:57.431Z,5.30
2018-09-10T23:00:28.654Z,6.23
2018-09-10T23:02:57.927Z,6.37
2018-09-10T23:05:27.214Z,7.03
2018-09-10T23:07:56.467Z,10.03
2018-09-10T23:10:25.695Z,9.87
2018-09-10T23:12:56.552Z,7.13
2018-09-10T23:15:25.857Z,6.57
2018-09-10T23:17:55.063Z,6.90
2018-09-10T23:20:24.363Z,8.83
2018-09-10T23:22:53.651Z,8.33
2018-09-10T23:25:22.931Z,10.17
2018-09-10T23:27:52.229Z,7.47
2018-09-10T23:30:21.660Z,8.37
2018-09-10T23:32:50.955Z,9.73
2018-09-10T23:35:20.212Z,7.77
2018-09-10T23:37:49.471Z,7.33
2018-09-10T23:40:18.678Z,10.10
2018-09-10T23:42:47.971Z,9.67
2018-09-10T23:45:17.306Z,8.73
2018-09-10T23:47:46.643Z,10.13
2018-09-10T23:50:15.909Z,10.40
2018-09-10T23:52:47.219Z,7.13
2018-09-10T23:55:16.514Z,11.53
2018-09-10T23:57:45.791Z,9.53
